sensor_id;sensor_type;location;lat;lon;timestamp;temperature;humidity
9941;DHT22;5009;50.656;7.188;2023-08-31T04:00:31;13.00;99.90
9941;DHT22;5009;50.656;7.188;2023-08-31T04:02:56;13.00;99.90
9941;DHT22;5009;50.656;7.188;2023-08-31T04:05:22;13.00;99.90
9941;DHT22;5009;50.656;7.188;2023-08-31T04:07:48;12.90;99.90
9941;DHT22;5009;50.656;7.188;2023-08-31T04:10:13;13.00;99.90
9941;DHT22;5009;50.656;7.188;2023-08-31T04:12:39;12.90;99.90
9941;DHT22;5009;50.656;7.188;2023-08-31T04:15:05;13.00;99.90
9941;DHT22;5009;50.656;7.188;2023-08-31T04:17:31;12.90;99.90
9941;DHT22;5009;50.656;7.188;2023-08-31T04:19:56;12.90;99.90
9941;DHT22;5009;50.656;7.188;2023-08-31T04:22:22;12.90;99.90
9941;DHT22;5009;50.656;7.188;2023-08-31T04:24:47;12.90;99.90
9941;DHT22;5009;50.656;7.188;2023-08-31T04:27:13;12.80;99.90
9941;DHT22;5009;50.656;7.188;2023-08-31T04:29:38;12.80;99.90
9941;DHT22;5009;50.656;7.188;2023-08-31T04:32:04;12.80;99.90
9941;DHT22;5009;50.656;7.188;2023-08-31T04:34:30;12.80;99.90
9941;DHT22;5009;50.656;7.188;2023-08-31T04:36:56;12.90;99.90
9941;DHT22;5009;50.656;7.188;2023-08-31T04:39:21;12.90;99.90
9941;DHT22;5009;50.656;7.188;2023-08-31T04:41:47;13.00;99.90
9941;DHT22;5009;50.656;7.188;2023-08-31T04:44:12;13.00;99.90
9941;DHT22;5009;50.656;7.188;2023-08-31T04:46:38;12.90;99.90
9941;DHT22;5009;50.656;7.188;2023-08-31T04:49:04;13.00;99.90
9941;DHT22;5009;50.656;7.188;2023-08-31T04:53:55;13.00;99.90
9941;DHT22;5009;50.656;7.188;2023-08-31T04:56:20;13.00;99.90
9941;DHT22;5009;50.656;7.188;2023-08-31T04:58:46;12.90;99.90
9941;DHT22;5009;50.656;7.188;2023-08-31T05:01:12;12.90;99.90
9941;DHT22;5009;50.656;7.188;2023-08-31T05:03:37;13.00;99.90
9941;DHT22;5009;50.656;7.188;2023-08-31T05:06:03;12.90;99.90
9941;DHT22;5009;50.656;7.188;2023-08-31T05:08:30;12.90;99.90
9941;DHT22;5009;50.656;7.188;2023-08-31T05:10:56;12.90;99.90
9941;DHT22;5009;50.656;7.188;2023-08-31T05:13:21;12.90;99.90
9941;DHT22;5009;50.656;7.188;2023-08-31T05:15:47;12.90;99.90
9941;DHT22;5009;50.656;7.188;2023-08-31T05:18:12;12.90;99.90
9941;DHT22;5009;50.656;7.188;2023-08-31T05:20:38;12.80;99.90
9941;DHT22;5009;50.656;7.188;2023-08-31T05:23:04;12.90;99.90
9941;DHT22;5009;50.656;7.188;2023-08-31T05:25:29;13.00;99.90
9941;DHT22;5009;50.656;7.188;2023-08-31T05:27:55;12.90;99.90
9941;DHT22;5009;50.656;7.188;2023-08-31T05:30:20;12.90;99.90
9941;DHT22;5009;50.656;7.188;2023-08-31T05:32:46;12.90;99.90
9941;DHT22;5009;50.656;7.188;2023-08-31T05:35:12;13.00;99.90
9941;DHT22;5009;50.656;7.188;2023-08-31T05:37:37;13.00;99.90
9941;DHT22;5009;50.656;7.188;2023-08-31T05:40:03;13.00;99.90
9941;DHT22;5009;50.656;7.188;2023-08-31T05:42:32;13.00;99.90
9941;DHT22;5009;50.656;7.188;2023-08-31T05:44:57;13.10;99.90
9941;DHT22;5009;50.656;7.188;2023-08-31T05:47:23;13.20;99.90
9941;DHT22;5009;50.656;7.188;2023-08-31T05:49:49;13.30;99.90
9941;DHT22;5009;50.656;7.188;2023-08-31T05:52:14;13.50;99.90
9941;DHT22;5009;50.656;7.188;2023-08-31T05:54:40;13.60;99.90
9941;DHT22;5009;50.656;7.188;2023-08-31T05:57:05;13.70;99.90
9941;DHT22;5009;50.656;7.188;2023-08-31T05:59:31;13.90;99.90
9941;DHT22;5009;50.656;7.188;2023-08-31T06:01:56;13.90;99.90
9941;DHT22;5009;50.656;7.188;2023-08-31T06:04:22;14.00;99.90
9941;DHT22;5009;50.656;7.188;2023-08-31T06:06:47;14.20;99.90
9941;DHT22;5009;50.656;7.188;2023-08-31T06:09:13;14.30;99.90
9941;DHT22;5009;50.656;7.188;2023-08-31T06:11:38;14.40;99.90
9941;DHT22;5009;50.656;7.188;2023-08-31T06:14:04;14.50;99.90
9941;DHT22;5009;50.656;7.188;2023-08-31T06:16:30;14.70;99.90
9941;DHT22;5009;50.656;7.188;2023-08-31T06:18:55;14.90;99.90
9941;DHT22;5009;50.656;7.188;2023-08-31T06:21:21;15.10;99.90
9941;DHT22;5009;50.656;7.188;2023-08-31T06:23:46;15.20;99.90
9941;DHT22;5009;50.656;7.188;2023-08-31T06:26:12;15.30;99.90
9941;DHT22;5009;50.656;7.188;2023-08-31T06:28:37;15.40;99.90
9941;DHT22;5009;50.656;7.188;2023-08-31T06:31:03;15.60;99.90
9941;DHT22;5009;50.656;7.188;2023-08-31T06:33:29;15.70;99.90
9941;DHT22;5009;50.656;7.188;2023-08-31T06:35:55;15.90;99.90
9941;DHT22;5009;50.656;7.188;2023-08-31T06:38:20;16.10;99.90
9941;DHT22;5009;50.656;7.188;2023-08-31T06:40:46;16.20;99.90
9941;DHT22;5009;50.656;7.188;2023-08-31T06:43:12;16.30;99.90
9941;DHT22;5009;50.656;7.188;2023-08-31T06:45:38;16.40;99.90
9941;DHT22;5009;50.656;7.188;2023-08-31T06:48:03;16.60;99.90
9941;DHT22;5009;50.656;7.188;2023-08-31T06:50:29;16.80;99.90
9941;DHT22;5009;50.656;7.188;2023-08-31T06:52:55;16.90;99.90
9941;DHT22;5009;50.656;7.188;2023-08-31T06:55:21;17.10;99.90
9941;DHT22;5009;50.656;7.188;2023-08-31T06:57:46;17.30;99.90
9941;DHT22;5009;50.656;7.188;2023-08-31T07:00:12;17.50;99.90
9941;DHT22;5009;50.656;7.188;2023-08-31T07:02:41;17.70;99.90
9941;DHT22;5009;50.656;7.188;2023-08-31T07:05:07;17.80;99.90
9941;DHT22;5009;50.656;7.188;2023-08-31T07:07:33;18.00;99.90
9941;DHT22;5009;50.656;7.188;2023-08-31T07:09:58;18.10;99.90
9941;DHT22;5009;50.656;7.188;2023-08-31T07:12:25;18.20;99.90
9941;DHT22;5009;50.656;7.188;2023-08-31T07:14:50;18.30;99.90
9941;DHT22;5009;50.656;7.188;2023-08-31T07:17:19;18.60;99.90
9941;DHT22;5009;50.656;7.188;2023-08-31T07:19:45;18.60;99.90
9941;DHT22;5009;50.656;7.188;2023-08-31T07:22:10;18.70;99.90
9941;DHT22;5009;50.656;7.188;2023-08-31T07:24:37;18.90;99.90
9941;DHT22;5009;50.656;7.188;2023-08-31T07:27:03;18.90;98.40
9941;DHT22;5009;50.656;7.188;2023-08-31T07:29:29;19.30;98.90
9941;DHT22;5009;50.656;7.188;2023-08-31T07:31:55;19.50;98.70
9941;DHT22;5009;50.656;7.188;2023-08-31T07:34:20;19.90;97.80
9941;DHT22;5009;50.656;7.188;2023-08-31T07:36:46;20.10;96.80
9941;DHT22;5009;50.656;7.188;2023-08-31T07:39:12;20.30;96.00
9941;DHT22;5009;50.656;7.188;2023-08-31T07:41:37;20.40;95.00
9941;DHT22;5009;50.656;7.188;2023-08-31T07:44:03;20.50;95.20
9941;DHT22;5009;50.656;7.188;2023-08-31T07:46:29;20.60;95.00
9941;DHT22;5009;50.656;7.188;2023-08-31T07:48:54;20.80;95.20
9941;DHT22;5009;50.656;7.188;2023-08-31T07:51:21;21.00;94.90
9941;DHT22;5009;50.656;7.188;2023-08-31T07:53:49;21.10;94.60
9941;DHT22;5009;50.656;7.188;2023-08-31T07:56:15;21.30;94.50
9941;DHT22;5009;50.656;7.188;2023-08-31T07:58:40;21.40;94.10
9941;DHT22;5009;50.656;7.188;2023-08-31T08:01:06;21.60;94.00
9941;DHT22;5009;50.656;7.188;2023-08-31T08:03:31;21.80;93.90
9941;DHT22;5009;50.656;7.188;2023-08-31T08:05:57;21.90;93.10
9941;DHT22;5009;50.656;7.188;2023-08-31T08:08:22;21.90;92.70
9941;DHT22;5009;50.656;7.188;2023-08-31T08:10:52;21.80;92.80
9941;DHT22;5009;50.656;7.188;2023-08-31T08:13:18;21.70;92.70
9941;DHT22;5009;50.656;7.188;2023-08-31T08:15:45;21.70;92.70
9941;DHT22;5009;50.656;7.188;2023-08-31T08:18:11;21.80;92.90
9941;DHT22;5009;50.656;7.188;2023-08-31T08:20:36;21.70;92.60
9941;DHT22;5009;50.656;7.188;2023-08-31T08:23:02;21.60;92.20
9941;DHT22;5009;50.656;7.188;2023-08-31T08:25:28;21.50;92.40
9941;DHT22;5009;50.656;7.188;2023-08-31T08:27:53;21.40;92.60
9941;DHT22;5009;50.656;7.188;2023-08-31T08:30:19;21.40;92.60
9941;DHT22;5009;50.656;7.188;2023-08-31T08:32:45;21.30;92.60
9941;DHT22;5009;50.656;7.188;2023-08-31T08:35:10;21.40;92.60
9941;DHT22;5009;50.656;7.188;2023-08-31T08:37:36;21.50;93.20
9941;DHT22;5009;50.656;7.188;2023-08-31T08:40:02;21.60;92.60
9941;DHT22;5009;50.656;7.188;2023-08-31T08:42:30;21.70;92.30
9941;DHT22;5009;50.656;7.188;2023-08-31T08:44:57;21.70;91.80
9941;DHT22;5009;50.656;7.188;2023-08-31T08:47:23;21.70;91.90
9941;DHT22;5009;50.656;7.188;2023-08-31T08:49:50;21.80;92.10
9941;DHT22;5009;50.656;7.188;2023-08-31T08:52:15;21.70;91.60
9941;DHT22;5009;50.656;7.188;2023-08-31T08:54:41;21.60;91.30
9941;DHT22;5009;50.656;7.188;2023-08-31T08:57:07;21.50;90.80
9941;DHT22;5009;50.656;7.188;2023-08-31T08:59:33;21.50;91.30
9941;DHT22;5009;50.656;7.188;2023-08-31T09:01:59;21.40;91.40
9941;DHT22;5009;50.656;7.188;2023-08-31T09:04:24;21.60;92.00
9941;DHT22;5009;50.656;7.188;2023-08-31T09:06:51;21.80;91.90
9941;DHT22;5009;50.656;7.188;2023-08-31T09:09:17;21.90;91.50
9941;DHT22;5009;50.656;7.188;2023-08-31T09:11:43;22.10;92.00
9941;DHT22;5009;50.656;7.188;2023-08-31T09:14:17;22.30;92.00
9941;DHT22;5009;50.656;7.188;2023-08-31T09:16:48;22.30;91.70
9941;DHT22;5009;50.656;7.188;2023-08-31T09:19:32;22.50;91.20
9941;DHT22;5009;50.656;7.188;2023-08-31T09:21:58;22.40;90.00
9941;DHT22;5009;50.656;7.188;2023-08-31T09:24:23;22.40;88.50
9941;DHT22;5009;50.656;7.188;2023-08-31T09:26:58;22.40;90.00
9941;DHT22;5009;50.656;7.188;2023-08-31T09:29:24;22.40;88.70
9941;DHT22;5009;50.656;7.188;2023-08-31T09:31:50;22.50;88.60
9941;DHT22;5009;50.656;7.188;2023-08-31T09:34:17;22.40;87.30
9941;DHT22;5009;50.656;7.188;2023-08-31T09:36:43;22.50;87.50
9941;DHT22;5009;50.656;7.188;2023-08-31T09:39:09;22.50;88.50
9941;DHT22;5009;50.656;7.188;2023-08-31T09:41:52;22.50;88.70
9941;DHT22;5009;50.656;7.188;2023-08-31T09:44:20;22.50;87.40
9941;DHT22;5009;50.656;7.188;2023-08-31T09:46:46;22.30;86.70
9941;DHT22;5009;50.656;7.188;2023-08-31T09:49:17;22.40;88.40
9941;DHT22;5009;50.656;7.188;2023-08-31T09:51:48;22.50;86.80
9941;DHT22;5009;50.656;7.188;2023-08-31T09:54:18;22.40;85.10
9941;DHT22;5009;50.656;7.188;2023-08-31T09:56:45;22.30;85.20
9941;DHT22;5009;50.656;7.188;2023-08-31T09:59:13;22.30;85.70
9941;DHT22;5009;50.656;7.188;2023-08-31T10:01:39;22.30;85.70
9941;DHT22;5009;50.656;7.188;2023-08-31T10:04:06;22.20;85.10
9941;DHT22;5009;50.656;7.188;2023-08-31T10:06:41;22.10;84.80
9941;DHT22;5009;50.656;7.188;2023-08-31T10:09:07;22.00;85.30
9941;DHT22;5009;50.656;7.188;2023-08-31T10:11:38;21.90;84.40
9941;DHT22;5009;50.656;7.188;2023-08-31T10:14:04;22.00;86.60
9941;DHT22;5009;50.656;7.188;2023-08-31T10:16:30;22.00;87.40
9941;DHT22;5009;50.656;7.188;2023-08-31T10:18:56;22.10;86.20
9941;DHT22;5009;50.656;7.188;2023-08-31T10:21:22;22.10;85.60
9941;DHT22;5009;50.656;7.188;2023-08-31T10:23:49;22.00;84.70
9941;DHT22;5009;50.656;7.188;2023-08-31T10:26:29;22.00;85.10
9941;DHT22;5009;50.656;7.188;2023-08-31T10:28:57;22.00;85.90
9941;DHT22;5009;50.656;7.188;2023-08-31T10:31:23;21.90;86.50
9941;DHT22;5009;50.656;7.188;2023-08-31T10:33:57;22.00;86.40
9941;DHT22;5009;50.656;7.188;2023-08-31T10:36:38;22.00;85.50
9941;DHT22;5009;50.656;7.188;2023-08-31T10:39:17;22.00;84.90
9941;DHT22;5009;50.656;7.188;2023-08-31T10:41:55;21.90;84.70
9941;DHT22;5009;50.656;7.188;2023-08-31T10:44:22;22.00;86.00
9941;DHT22;5009;50.656;7.188;2023-08-31T10:46:49;22.00;85.20
9941;DHT22;5009;50.656;7.188;2023-08-31T10:49:19;22.00;86.00
9941;DHT22;5009;50.656;7.188;2023-08-31T10:51:55;22.10;86.80
9941;DHT22;5009;50.656;7.188;2023-08-31T10:54:26;22.20;85.90
9941;DHT22;5009;50.656;7.188;2023-08-31T11:02:10;22.20;83.80
9941;DHT22;5009;50.656;7.188;2023-08-31T11:05:14;22.20;84.30
9941;DHT22;5009;50.656;7.188;2023-08-31T11:07:41;22.10;83.10
9941;DHT22;5009;50.656;7.188;2023-08-31T11:10:18;22.10;82.60
9941;DHT22;5009;50.656;7.188;2023-08-31T11:12:47;22.10;83.20
9941;DHT22;5009;50.656;7.188;2023-08-31T11:15:14;22.10;84.00
9941;DHT22;5009;50.656;7.188;2023-08-31T11:17:41;22.10;83.20
9941;DHT22;5009;50.656;7.188;2023-08-31T11:20:12;22.00;82.40
9941;DHT22;5009;50.656;7.188;2023-08-31T11:22:42;22.00;82.20
9941;DHT22;5009;50.656;7.188;2023-08-31T11:25:13;22.00;83.00
9941;DHT22;5009;50.656;7.188;2023-08-31T11:27:39;22.00;83.20
9941;DHT22;5009;50.656;7.188;2023-08-31T11:30:15;21.90;83.60
9941;DHT22;5009;50.656;7.188;2023-08-31T11:32:53;22.00;83.90
9941;DHT22;5009;50.656;7.188;2023-08-31T11:35:20;21.90;83.20
9941;DHT22;5009;50.656;7.188;2023-08-31T11:37:51;22.00;83.30
9941;DHT22;5009;50.656;7.188;2023-08-31T11:40:17;21.90;82.30
9941;DHT22;5009;50.656;7.188;2023-08-31T11:42:43;21.90;82.30
9941;DHT22;5009;50.656;7.188;2023-08-31T11:45:10;21.90;81.80
9941;DHT22;5009;50.656;7.188;2023-08-31T11:47:36;21.90;81.60
9941;DHT22;5009;50.656;7.188;2023-08-31T11:50:05;21.90;80.90
9941;DHT22;5009;50.656;7.188;2023-08-31T11:52:31;21.90;80.90
9941;DHT22;5009;50.656;7.188;2023-08-31T11:54:57;21.90;81.20
9941;DHT22;5009;50.656;7.188;2023-08-31T11:57:26;22.00;82.10
9941;DHT22;5009;50.656;7.188;2023-08-31T11:59:54;22.00;82.70
9941;DHT22;5009;50.656;7.188;2023-08-31T12:02:20;22.00;79.60
9941;DHT22;5009;50.656;7.188;2023-08-31T12:04:46;22.10;80.00
9941;DHT22;5009;50.656;7.188;2023-08-31T12:07:17;22.20;80.00
9941;DHT22;5009;50.656;7.188;2023-08-31T12:09:43;22.20;80.30
9941;DHT22;5009;50.656;7.188;2023-08-31T12:12:15;22.10;79.10
9941;DHT22;5009;50.656;7.188;2023-08-31T12:14:43;22.10;79.80
9941;DHT22;5009;50.656;7.188;2023-08-31T12:17:09;22.10;80.40
9941;DHT22;5009;50.656;7.188;2023-08-31T12:19:38;22.10;80.60
9941;DHT22;5009;50.656;7.188;2023-08-31T12:22:07;22.10;81.20
9941;DHT22;5009;50.656;7.188;2023-08-31T12:24:41;22.10;80.80
9941;DHT22;5009;50.656;7.188;2023-08-31T12:27:08;22.00;81.10
9941;DHT22;5009;50.656;7.188;2023-08-31T12:29:34;21.90;82.10
9941;DHT22;5009;50.656;7.188;2023-08-31T12:31:59;21.90;84.10
9941;DHT22;5009;50.656;7.188;2023-08-31T12:34:25;21.80;86.60
9941;DHT22;5009;50.656;7.188;2023-08-31T12:36:51;21.60;89.60
9941;DHT22;5009;50.656;7.188;2023-08-31T12:39:18;21.50;90.60
9941;DHT22;5009;50.656;7.188;2023-08-31T12:41:43;21.40;91.20
9941;DHT22;5009;50.656;7.188;2023-08-31T12:44:09;21.30;92.10
9941;DHT22;5009;50.656;7.188;2023-08-31T12:46:35;21.20;92.80
9941;DHT22;5009;50.656;7.188;2023-08-31T12:49:01;21.20;92.90
9941;DHT22;5009;50.656;7.188;2023-08-31T12:51:29;21.30;92.10
9941;DHT22;5009;50.656;7.188;2023-08-31T12:53:55;21.30;91.30
9941;DHT22;5009;50.656;7.188;2023-08-31T12:56:21;21.40;91.90
9941;DHT22;5009;50.656;7.188;2023-08-31T12:58:53;21.30;89.50
9941;DHT22;5009;50.656;7.188;2023-08-31T13:01:20;21.30;89.30
9941;DHT22;5009;50.656;7.188;2023-08-31T13:03:46;21.30;88.10
9941;DHT22;5009;50.656;7.188;2023-08-31T13:06:13;21.30;88.70
9941;DHT22;5009;50.656;7.188;2023-08-31T13:08:39;21.20;88.50
9941;DHT22;5009;50.656;7.188;2023-08-31T13:11:09;21.10;88.20
9941;DHT22;5009;50.656;7.188;2023-08-31T13:13:34;21.00;89.30
9941;DHT22;5009;50.656;7.188;2023-08-31T13:16:00;21.00;89.10
9941;DHT22;5009;50.656;7.188;2023-08-31T13:18:26;21.00;90.10
9941;DHT22;5009;50.656;7.188;2023-08-31T13:20:55;21.00;90.40
9941;DHT22;5009;50.656;7.188;2023-08-31T13:23:21;21.00;90.00
9941;DHT22;5009;50.656;7.188;2023-08-31T13:25:47;21.00;90.30
9941;DHT22;5009;50.656;7.188;2023-08-31T13:28:13;20.90;90.40
9941;DHT22;5009;50.656;7.188;2023-08-31T13:30:39;20.90;90.00
9941;DHT22;5009;50.656;7.188;2023-08-31T13:33:05;20.90;90.10
9941;DHT22;5009;50.656;7.188;2023-08-31T13:35:31;20.90;89.90
9941;DHT22;5009;50.656;7.188;2023-08-31T13:37:57;20.80;88.50
9941;DHT22;5009;50.656;7.188;2023-08-31T13:40:22;20.80;88.80
9941;DHT22;5009;50.656;7.188;2023-08-31T13:42:55;20.80;88.80
9941;DHT22;5009;50.656;7.188;2023-08-31T13:45:25;20.70;88.90
9941;DHT22;5009;50.656;7.188;2023-08-31T13:47:51;20.70;89.40
9941;DHT22;5009;50.656;7.188;2023-08-31T13:50:17;20.70;88.40
9941;DHT22;5009;50.656;7.188;2023-08-31T13:52:42;20.70;88.60
9941;DHT22;5009;50.656;7.188;2023-08-31T13:55:08;20.70;89.00
9941;DHT22;5009;50.656;7.188;2023-08-31T13:57:33;20.70;89.10
9941;DHT22;5009;50.656;7.188;2023-08-31T13:59:59;20.60;88.60
9941;DHT22;5009;50.656;7.188;2023-08-31T14:02:25;20.60;88.90
9941;DHT22;5009;50.656;7.188;2023-08-31T14:04:51;20.70;89.20
9941;DHT22;5009;50.656;7.188;2023-08-31T14:07:17;20.60;88.70
9941;DHT22;5009;50.656;7.188;2023-08-31T14:09:43;20.70;88.90
9941;DHT22;5009;50.656;7.188;2023-08-31T14:12:08;20.70;88.80
9941;DHT22;5009;50.656;7.188;2023-08-31T14:14:35;20.80;89.20
9941;DHT22;5009;50.656;7.188;2023-08-31T14:17:01;20.80;88.80
9941;DHT22;5009;50.656;7.188;2023-08-31T14:19:26;20.80;88.50
9941;DHT22;5009;50.656;7.188;2023-08-31T14:21:52;20.80;88.50
9941;DHT22;5009;50.656;7.188;2023-08-31T14:24:18;20.90;88.60
9941;DHT22;5009;50.656;7.188;2023-08-31T14:26:44;20.90;89.30
9941;DHT22;5009;50.656;7.188;2023-08-31T14:29:10;20.80;89.80
9941;DHT22;5009;50.656;7.188;2023-08-31T14:31:37;20.80;89.50
9941;DHT22;5009;50.656;7.188;2023-08-31T14:34:02;20.80;89.50
9941;DHT22;5009;50.656;7.188;2023-08-31T14:36:28;20.80;89.70
9941;DHT22;5009;50.656;7.188;2023-08-31T14:38:53;20.80;89.50
9941;DHT22;5009;50.656;7.188;2023-08-31T14:41:19;20.80;88.20
9941;DHT22;5009;50.656;7.188;2023-08-31T14:43:44;20.70;89.30
9941;DHT22;5009;50.656;7.188;2023-08-31T14:46:10;20.60;90.00
9941;DHT22;5009;50.656;7.188;2023-08-31T14:48:35;20.60;90.60
9941;DHT22;5009;50.656;7.188;2023-08-31T14:51:02;20.50;91.00
9941;DHT22;5009;50.656;7.188;2023-08-31T14:53:27;20.50;91.60
9941;DHT22;5009;50.656;7.188;2023-08-31T14:55:53;20.40;91.90
9941;DHT22;5009;50.656;7.188;2023-08-31T14:58:19;20.20;92.00
9941;DHT22;5009;50.656;7.188;2023-08-31T15:00:45;20.20;92.50
9941;DHT22;5009;50.656;7.188;2023-08-31T15:03:11;20.20;92.40
9941;DHT22;5009;50.656;7.188;2023-08-31T15:05:36;20.10;92.70
9941;DHT22;5009;50.656;7.188;2023-08-31T15:08:05;20.10;92.60
9941;DHT22;5009;50.656;7.188;2023-08-31T15:10:31;20.00;93.00
9941;DHT22;5009;50.656;7.188;2023-08-31T15:12:56;20.00;93.30
9941;DHT22;5009;50.656;7.188;2023-08-31T15:15:28;19.90;93.10
9941;DHT22;5009;50.656;7.188;2023-08-31T15:17:54;19.90;93.10
9941;DHT22;5009;50.656;7.188;2023-08-31T15:20:21;19.90;93.10
9941;DHT22;5009;50.656;7.188;2023-08-31T15:22:47;20.00;93.20
9941;DHT22;5009;50.656;7.188;2023-08-31T15:25:13;20.00;93.40
9941;DHT22;5009;50.656;7.188;2023-08-31T15:27:41;20.10;93.30
9941;DHT22;5009;50.656;7.188;2023-08-31T15:30:07;20.10;92.50
9941;DHT22;5009;50.656;7.188;2023-08-31T15:32:35;20.10;92.40
9941;DHT22;5009;50.656;7.188;2023-08-31T15:35:00;20.10;92.30
9941;DHT22;5009;50.656;7.188;2023-08-31T15:37:26;20.10;92.50
9941;DHT22;5009;50.656;7.188;2023-08-31T15:39:52;20.00;92.30
9941;DHT22;5009;50.656;7.188;2023-08-31T15:42:17;20.10;92.30
9941;DHT22;5009;50.656;7.188;2023-08-31T15:44:44;20.00;93.00
9941;DHT22;5009;50.656;7.188;2023-08-31T15:47:09;20.10;93.30
9941;DHT22;5009;50.656;7.188;2023-08-31T15:49:35;20.10;93.40
9941;DHT22;5009;50.656;7.188;2023-08-31T15:52:02;20.10;94.00
9941;DHT22;5009;50.656;7.188;2023-08-31T15:54:29;20.10;92.90
9941;DHT22;5009;50.656;7.188;2023-08-31T15:56:55;20.10;92.90
9941;DHT22;5009;50.656;7.188;2023-08-31T15:59:20;20.10;92.90
9941;DHT22;5009;50.656;7.188;2023-08-31T16:01:46;20.10;93.30
9941;DHT22;5009;50.656;7.188;2023-08-31T16:04:12;20.20;93.60
9941;DHT22;5009;50.656;7.188;2023-08-31T16:06:37;20.20;93.10
9941;DHT22;5009;50.656;7.188;2023-08-31T16:09:04;20.20;93.00
9941;DHT22;5009;50.656;7.188;2023-08-31T16:11:31;20.20;93.00
9941;DHT22;5009;50.656;7.188;2023-08-31T16:13:57;20.20;93.20
9941;DHT22;5009;50.656;7.188;2023-08-31T16:16:23;20.20;93.80
9941;DHT22;5009;50.656;7.188;2023-08-31T16:18:49;20.20;93.60
9941;DHT22;5009;50.656;7.188;2023-08-31T16:21:15;20.30;93.20
9941;DHT22;5009;50.656;7.188;2023-08-31T16:23:41;20.30;91.80
9941;DHT22;5009;50.656;7.188;2023-08-31T16:26:07;20.30;91.50
9941;DHT22;5009;50.656;7.188;2023-08-31T16:28:32;20.30;90.80
9941;DHT22;5009;50.656;7.188;2023-08-31T16:30:59;20.30;90.10
9941;DHT22;5009;50.656;7.188;2023-08-31T16:33:25;20.30;90.20
9941;DHT22;5009;50.656;7.188;2023-08-31T16:36:00;20.30;90.10
9941;DHT22;5009;50.656;7.188;2023-08-31T16:38:28;20.20;90.10
9941;DHT22;5009;50.656;7.188;2023-08-31T16:40:53;20.30;90.00
9941;DHT22;5009;50.656;7.188;2023-08-31T16:43:19;20.20;89.90
9941;DHT22;5009;50.656;7.188;2023-08-31T16:45:44;20.20;89.50
9941;DHT22;5009;50.656;7.188;2023-08-31T16:48:10;20.20;89.90
9941;DHT22;5009;50.656;7.188;2023-08-31T16:50:36;20.20;90.00
9941;DHT22;5009;50.656;7.188;2023-08-31T16:53:03;20.20;90.10
9941;DHT22;5009;50.656;7.188;2023-08-31T16:55:30;20.20;90.00
9941;DHT22;5009;50.656;7.188;2023-08-31T16:57:56;20.20;90.00
9941;DHT22;5009;50.656;7.188;2023-08-31T17:00:22;20.20;90.20
9941;DHT22;5009;50.656;7.188;2023-08-31T17:02:49;20.20;90.10
9941;DHT22;5009;50.656;7.188;2023-08-31T17:05:15;20.20;90.10
9941;DHT22;5009;50.656;7.188;2023-08-31T17:07:41;20.10;90.20
9941;DHT22;5009;50.656;7.188;2023-08-31T17:10:07;20.10;90.60
9941;DHT22;5009;50.656;7.188;2023-08-31T17:12:33;20.10;90.80
9941;DHT22;5009;50.656;7.188;2023-08-31T17:14:59;20.10;90.80
9941;DHT22;5009;50.656;7.188;2023-08-31T17:17:25;20.00;90.50
9941;DHT22;5009;50.656;7.188;2023-08-31T17:19:54;20.00;90.40
9941;DHT22;5009;50.656;7.188;2023-08-31T17:22:20;20.00;90.60
9941;DHT22;5009;50.656;7.188;2023-08-31T17:24:46;20.00;90.70
9941;DHT22;5009;50.656;7.188;2023-08-31T17:27:11;19.90;90.70
9941;DHT22;5009;50.656;7.188;2023-08-31T17:29:37;20.00;90.60
9941;DHT22;5009;50.656;7.188;2023-08-31T17:32:03;19.90;90.70
9941;DHT22;5009;50.656;7.188;2023-08-31T17:34:29;19.90;91.00
9941;DHT22;5009;50.656;7.188;2023-08-31T17:36:54;19.80;91.00
9941;DHT22;5009;50.656;7.188;2023-08-31T17:39:20;19.80;91.10
9941;DHT22;5009;50.656;7.188;2023-08-31T17:41:46;19.80;91.00
9941;DHT22;5009;50.656;7.188;2023-08-31T17:44:11;19.70;91.00
9941;DHT22;5009;50.656;7.188;2023-08-31T17:46:38;19.70;91.10
9941;DHT22;5009;50.656;7.188;2023-08-31T17:49:03;19.70;91.10
9941;DHT22;5009;50.656;7.188;2023-08-31T17:51:29;19.60;90.90
9941;DHT22;5009;50.656;7.188;2023-08-31T17:53:55;19.50;90.60
9941;DHT22;5009;50.656;7.188;2023-08-31T17:56:24;19.50;90.60
9941;DHT22;5009;50.656;7.188;2023-08-31T17:58:50;19.50;90.20
9941;DHT22;5009;50.656;7.188;2023-08-31T18:01:15;19.40;90.30
9941;DHT22;5009;50.656;7.188;2023-08-31T18:03:41;19.40;90.30
9941;DHT22;5009;50.656;7.188;2023-08-31T18:06:06;19.40;89.90
9941;DHT22;5009;50.656;7.188;2023-08-31T18:08:32;19.30;89.30
9941;DHT22;5009;50.656;7.188;2023-08-31T18:10:59;19.30;89.10
9941;DHT22;5009;50.656;7.188;2023-08-31T18:13:25;19.30;88.80
9941;DHT22;5009;50.656;7.188;2023-08-31T18:15:51;19.30;88.80
9941;DHT22;5009;50.656;7.188;2023-08-31T18:18:17;19.20;88.70
9941;DHT22;5009;50.656;7.188;2023-08-31T18:20:43;19.20;88.80
9941;DHT22;5009;50.656;7.188;2023-08-31T18:23:08;19.20;89.00
9941;DHT22;5009;50.656;7.188;2023-08-31T18:25:34;19.10;89.10
9941;DHT22;5009;50.656;7.188;2023-08-31T18:28:00;19.10;90.10
9941;DHT22;5009;50.656;7.188;2023-08-31T18:30:26;19.00;89.90
9941;DHT22;5009;50.656;7.188;2023-08-31T18:32:51;19.00;90.00
9941;DHT22;5009;50.656;7.188;2023-08-31T18:35:17;18.90;90.30
9941;DHT22;5009;50.656;7.188;2023-08-31T18:37:42;18.90;90.70
9941;DHT22;5009;50.656;7.188;2023-08-31T18:40:08;18.80;90.70
9941;DHT22;5009;50.656;7.188;2023-08-31T18:42:37;18.80;90.80
9941;DHT22;5009;50.656;7.188;2023-08-31T18:45:05;18.80;91.10
9941;DHT22;5009;50.656;7.188;2023-08-31T18:47:32;18.70;91.10
9941;DHT22;5009;50.656;7.188;2023-08-31T18:49:58;18.70;91.20
9941;DHT22;5009;50.656;7.188;2023-08-31T18:52:23;18.70;91.30
9941;DHT22;5009;50.656;7.188;2023-08-31T18:54:49;18.60;91.50
9941;DHT22;5009;50.656;7.188;2023-08-31T18:57:14;18.60;91.60
9941;DHT22;5009;50.656;7.188;2023-08-31T18:59:40;18.50;91.60
9941;DHT22;5009;50.656;7.188;2023-08-31T19:02:05;18.50;91.80
9941;DHT22;5009;50.656;7.188;2023-08-31T19:04:34;18.40;91.80
9941;DHT22;5009;50.656;7.188;2023-08-31T19:07:00;18.40;92.10
9941;DHT22;5009;50.656;7.188;2023-08-31T19:09:26;18.40;91.90
9941;DHT22;5009;50.656;7.188;2023-08-31T19:11:55;18.30;92.00
9941;DHT22;5009;50.656;7.188;2023-08-31T19:14:20;18.20;92.10
9941;DHT22;5009;50.656;7.188;2023-08-31T19:16:47;18.20;92.30
9941;DHT22;5009;50.656;7.188;2023-08-31T19:19:12;18.20;92.20
9941;DHT22;5009;50.656;7.188;2023-08-31T19:21:41;18.10;92.30
9941;DHT22;5009;50.656;7.188;2023-08-31T19:24:06;18.10;92.30
9941;DHT22;5009;50.656;7.188;2023-08-31T19:26:32;18.10;92.40
9941;DHT22;5009;50.656;7.188;2023-08-31T19:29:02;18.00;92.20
9941;DHT22;5009;50.656;7.188;2023-08-31T19:31:28;18.00;92.20
9941;DHT22;5009;50.656;7.188;2023-08-31T19:33:55;17.90;92.20
9941;DHT22;5009;50.656;7.188;2023-08-31T19:36:20;17.80;92.50
9941;DHT22;5009;50.656;7.188;2023-08-31T19:38:46;17.70;93.10
9941;DHT22;5009;50.656;7.188;2023-08-31T19:41:11;17.70;93.40
9941;DHT22;5009;50.656;7.188;2023-08-31T19:43:37;17.70;94.40
9941;DHT22;5009;50.656;7.188;2023-08-31T19:46:11;17.70;94.60
9941;DHT22;5009;50.656;7.188;2023-08-31T19:48:37;17.70;95.10
9941;DHT22;5009;50.656;7.188;2023-08-31T19:51:07;17.60;96.20
9941;DHT22;5009;50.656;7.188;2023-08-31T19:53:33;17.60;97.50
9941;DHT22;5009;50.656;7.188;2023-08-31T19:56:03;17.50;98.30
9941;DHT22;5009;50.656;7.188;2023-08-31T19:58:29;17.50;98.40
9941;DHT22;5009;50.656;7.188;2023-08-31T20:00:55;17.40;98.70
9941;DHT22;5009;50.656;7.188;2023-08-31T20:03:21;17.20;99.00
9941;DHT22;5009;50.656;7.188;2023-08-31T20:05:46;17.20;99.20